createdAt,value
2017-07-28T00:02:06.441Z,4.90
2017-07-28T00:04:32.703Z,5.20
2017-07-28T00:06:59.717Z,5.53
2017-07-28T00:09:26.000Z,4.63
2017-07-28T00:11:52.258Z,4.43
2017-07-28T00:14:18.534Z,4.80
2017-07-28T00:16:46.532Z,5.73
2017-07-28T00:19:12.788Z,5.10
2017-07-28T00:21:39.060Z,4.80
2017-07-28T00:24:06.081Z,4.67
2017-07-28T00:26:32.357Z,4.77
2017-07-28T00:28:58.612Z,4.90
2017-07-28T00:31:25.908Z,4.83
2017-07-28T00:33:52.156Z,5.47
2017-07-28T00:36:18.419Z,4.90
2017-07-28T00:38:44.700Z,5.37
2017-07-28T00:41:11.713Z,4.70
2017-07-28T00:43:37.975Z,5.20
2017-07-28T00:46:04.232Z,4.60
2017-07-28T00:48:31.509Z,4.40
2017-07-28T00:50:57.785Z,5.00
2017-07-28T00:53:24.044Z,3.97
2017-07-28T00:55:50.300Z,5.00
2017-07-28T00:58:16.549Z,4.80
2017-07-28T01:00:42.842Z,5.70
2017-07-28T01:03:09.145Z,5.07
2017-07-28T01:05:35.406Z,5.43
2017-07-28T01:08:01.682Z,5.60
2017-07-28T01:10:27.946Z,5.50
2017-07-28T01:12:54.200Z,6.03
2017-07-28T01:15:20.505Z,5.47
2017-07-28T01:17:46.770Z,6.33
2017-07-28T01:20:13.033Z,5.40
2017-07-28T01:22:39.310Z,6.07
2017-07-28T01:25:05.637Z,5.20
2017-07-28T01:27:31.917Z,5.90
2017-07-28T01:29:58.917Z,5.27
2017-07-28T01:32:25.236Z,6.17
2017-07-28T01:34:51.513Z,5.33
2017-07-28T01:37:17.781Z,6.17
2017-07-28T01:39:44.085Z,4.97
2017-07-28T01:42:10.406Z,5.23
2017-07-28T01:44:36.702Z,6.10
2017-07-28T01:47:03.026Z,6.13
2017-07-28T01:49:29.322Z,5.23
2017-07-28T01:51:55.632Z,8.17
2017-07-28T01:54:21.933Z,6.70
2017-07-28T01:56:48.204Z,5.60
2017-07-28T01:59:14.485Z,4.90
2017-07-28T02:01:40.786Z,4.07
2017-07-28T02:04:07.081Z,3.13
2017-07-28T02:06:33.359Z,3.20
2017-07-28T02:08:59.652Z,3.60
2017-07-28T02:11:25.917Z,2.43
2017-07-28T02:13:52.178Z,3.43
2017-07-28T02:16:18.469Z,2.23
2017-07-28T02:18:44.724Z,3.13
2017-07-28T02:21:10.989Z,2.57
2017-07-28T02:23:37.246Z,2.50
2017-07-28T02:26:04.516Z,2.70
2017-07-28T02:28:30.785Z,2.27
2017-07-28T02:30:57.803Z,1.83
2017-07-28T02:33:24.057Z,2.30
2017-07-28T02:35:50.308Z,2.50
2017-07-28T02:38:16.565Z,2.70
2017-07-28T02:40:42.825Z,2.27
2017-07-28T02:43:09.072Z,1.93
2017-07-28T02:45:36.072Z,5.07
2017-07-28T02:48:02.328Z,3.00
2017-07-28T02:50:28.612Z,2.63
2017-07-28T02:52:54.868Z,2.23
2017-07-28T02:55:21.125Z,3.00
2017-07-28T02:57:47.422Z,2.80
2017-07-28T03:00:13.682Z,2.60
2017-07-28T03:02:39.940Z,2.60
2017-07-28T03:05:07.205Z,2.87
2017-07-28T03:07:33.461Z,2.60
2017-07-28T03:09:59.729Z,3.60
2017-07-28T03:12:25.980Z,2.83
2017-07-28T03:14:52.238Z,2.80
2017-07-28T03:17:18.484Z,2.37
2017-07-28T03:19:44.751Z,2.10
2017-07-28T03:22:11.021Z,2.70
2017-07-28T03:24:37.272Z,2.60
2017-07-28T03:27:03.525Z,2.50
2017-07-28T03:29:30.524Z,2.70
2017-07-28T03:31:56.782Z,2.90
2017-07-28T03:34:23.062Z,2.50
2017-07-28T03:36:49.320Z,2.50
2017-07-28T03:39:15.575Z,2.43
2017-07-28T03:41:42.830Z,2.37
2017-07-28T03:44:09.080Z,3.07
2017-07-28T03:46:35.352Z,3.10
2017-07-28T03:49:01.605Z,2.50
2017-07-28T03:51:27.904Z,2.60
2017-07-28T03:53:54.153Z,3.10
2017-07-28T03:56:20.405Z,3.20
2017-07-28T03:58:46.688Z,3.30
2017-07-28T04:01:12.942Z,3.00
2017-07-28T04:03:39.185Z,3.57
2017-07-28T04:06:05.441Z,2.70
2017-07-28T04:08:32.701Z,3.90
2017-07-28T04:10:58.977Z,2.60
2017-07-28T04:13:25.224Z,2.77
2017-07-28T04:15:52.233Z,3.07
2017-07-28T04:18:18.492Z,2.40
2017-07-28T04:20:44.753Z,2.80
2017-07-28T04:23:11.039Z,2.40
2017-07-28T04:25:37.296Z,2.10
2017-07-28T04:28:04.293Z,2.80
2017-07-28T04:30:30.546Z,2.53
2017-07-28T04:32:56.801Z,2.80
2017-07-28T04:35:23.076Z,3.20
2017-07-28T04:37:49.329Z,2.97
2017-07-28T04:40:15.593Z,2.43
2017-07-28T04:42:41.840Z,2.63
2017-07-28T04:45:08.114Z,2.40
2017-07-28T04:47:34.376Z,2.90
2017-07-28T04:50:02.272Z,2.03
2017-07-28T04:52:28.529Z,1.67
2017-07-28T04:54:54.790Z,2.10
2017-07-28T04:57:21.050Z,2.43
2017-07-28T04:59:47.329Z,2.37
2017-07-28T05:02:13.596Z,2.40
2017-07-28T05:04:39.854Z,1.90
2017-07-28T05:07:06.112Z,2.50
2017-07-28T05:09:33.377Z,2.83
2017-07-28T05:12:00.456Z,2.30
2017-07-28T05:14:26.715Z,2.27
2017-07-28T05:16:52.963Z,2.40
2017-07-28T05:19:19.229Z,2.60
2017-07-28T05:21:46.225Z,2.00
2017-07-28T05:24:12.516Z,2.50
2017-07-28T05:26:38.769Z,2.37
2017-07-28T05:29:05.025Z,1.83
2017-07-28T05:31:31.282Z,2.40
2017-07-28T05:33:57.537Z,2.20
2017-07-28T05:36:23.809Z,1.97
2017-07-28T05:38:50.070Z,2.10
2017-07-28T05:41:16.357Z,2.30
2017-07-28T05:43:42.624Z,2.30
2017-07-28T05:46:08.894Z,3.13
2017-07-28T05:48:35.170Z,1.90
2017-07-28T05:51:01.421Z,2.57
2017-07-28T05:53:27.688Z,2.53
2017-07-28T05:55:53.946Z,2.80
2017-07-28T05:58:20.542Z,2.20
2017-07-28T06:00:46.828Z,1.83
2017-07-28T06:03:13.076Z,2.20
2017-07-28T06:05:39.337Z,2.33
2017-07-28T06:08:05.593Z,2.27
2017-07-28T06:10:31.854Z,2.20
2017-07-28T06:12:58.143Z,2.00
2017-07-28T06:15:24.389Z,2.30
2017-07-28T06:17:50.662Z,2.20
2017-07-28T06:20:16.923Z,2.37
2017-07-28T06:22:43.644Z,2.60
2017-07-28T06:25:09.939Z,2.00
2017-07-28T06:27:36.191Z,2.00
2017-07-28T06:30:02.477Z,2.90
2017-07-28T06:32:29.477Z,1.77
2017-07-28T06:34:55.738Z,2.20
2017-07-28T06:37:22.016Z,2.17
2017-07-28T06:39:48.281Z,3.23
2017-07-28T06:42:14.538Z,3.07
2017-07-28T06:44:41.539Z,2.90
2017-07-28T06:47:07.801Z,3.10
2017-07-28T06:49:34.094Z,2.50
2017-07-28T06:52:00.357Z,2.63
2017-07-28T06:54:26.622Z,3.70
2017-07-28T06:56:52.882Z,5.40
2017-07-28T06:59:19.138Z,2.23
2017-07-28T07:01:45.451Z,2.70
2017-07-28T07:04:11.894Z,3.70
2017-07-28T07:06:38.914Z,2.63
2017-07-28T07:09:05.192Z,2.47
2017-07-28T07:11:31.478Z,2.63
2017-07-28T07:13:57.785Z,2.37
2017-07-28T07:16:24.057Z,2.30
2017-07-28T07:18:50.317Z,2.33
2017-07-28T07:21:16.572Z,2.90
2017-07-28T07:23:42.841Z,2.60
2017-07-28T07:26:09.148Z,2.40
2017-07-28T07:28:35.409Z,2.60
2017-07-28T07:31:01.678Z,3.00
2017-07-28T07:33:27.965Z,2.83
2017-07-28T07:35:54.978Z,2.63
2017-07-28T07:38:21.269Z,2.53
2017-07-28T07:40:47.542Z,2.93
2017-07-28T07:43:13.805Z,2.57
2017-07-28T07:45:40.064Z,1.83
2017-07-28T07:48:06.341Z,4.30
2017-07-28T07:50:32.604Z,2.43
2017-07-28T07:52:58.870Z,2.63
2017-07-28T07:55:25.136Z,2.57
2017-07-28T07:57:51.386Z,2.23
2017-07-28T08:00:17.669Z,2.60
2017-07-28T08:02:43.937Z,4.67
2017-07-28T08:05:11.184Z,2.67
2017-07-28T08:07:37.460Z,2.80
2017-07-28T08:10:03.725Z,2.37
2017-07-28T08:12:29.984Z,3.40
2017-07-28T08:14:56.256Z,2.57
2017-07-28T08:17:22.517Z,2.97
2017-07-28T08:19:48.793Z,2.73
2017-07-28T08:22:15.073Z,3.80
2017-07-28T08:24:41.337Z,3.20
2017-07-28T08:27:07.613Z,2.17
2017-07-28T08:29:33.864Z,2.73
2017-07-28T08:32:00.117Z,3.83
2017-07-28T08:34:27.121Z,2.40
2017-07-28T08:36:53.381Z,4.73
2017-07-28T08:39:19.676Z,2.97
2017-07-28T08:41:45.928Z,3.47
2017-07-28T08:44:12.185Z,4.60
2017-07-28T08:46:38.448Z,3.77
2017-07-28T08:49:04.718Z,4.50
2017-07-28T08:51:30.988Z,2.53
2017-07-28T08:53:57.232Z,4.60
2017-07-28T08:56:23.493Z,4.40
2017-07-28T08:58:49.746Z,2.90
2017-07-28T09:01:16.741Z,5.00
2017-07-28T09:03:43.025Z,2.67
2017-07-28T09:06:10.029Z,2.63
2017-07-28T09:08:36.298Z,3.00
2017-07-28T09:11:03.301Z,3.10
2017-07-28T09:13:29.553Z,2.73
2017-07-28T09:15:55.845Z,6.40
2017-07-28T09:18:22.127Z,4.53
2017-07-28T09:20:48.396Z,3.60
2017-07-28T09:23:14.649Z,4.50
2017-07-28T09:25:40.909Z,4.60
2017-07-28T09:28:07.185Z,3.57
2017-07-28T09:30:33.454Z,3.67
2017-07-28T09:32:59.716Z,2.90
2017-07-28T09:35:25.986Z,3.03
2017-07-28T09:37:52.258Z,3.70
2017-07-28T09:40:18.525Z,4.03
2017-07-28T09:42:44.821Z,5.00
2017-07-28T09:45:11.093Z,5.50
2017-07-28T09:47:37.382Z,4.40
2017-07-28T09:50:03.655Z,4.00
2017-07-28T09:52:29.942Z,3.70
2017-07-28T09:54:56.208Z,4.30
2017-07-28T09:57:22.465Z,3.87
2017-07-28T09:59:48.734Z,3.53
2017-07-28T10:02:14.996Z,4.30
2017-07-28T10:04:41.283Z,4.00
2017-07-28T10:07:07.535Z,3.80
2017-07-28T10:09:33.789Z,5.17
2017-07-28T10:12:00.049Z,4.43
2017-07-28T10:14:27.305Z,3.80
2017-07-28T10:16:54.334Z,5.40
2017-07-28T10:19:20.592Z,4.63
2017-07-28T10:21:46.852Z,4.33
2017-07-28T10:24:13.166Z,5.37
2017-07-28T10:26:39.422Z,6.03
2017-07-28T10:29:05.717Z,4.67
2017-07-28T10:31:31.977Z,4.37
2017-07-28T10:33:58.228Z,3.50
2017-07-28T10:36:24.494Z,4.23
2017-07-28T10:38:50.756Z,4.33
2017-07-28T10:41:17.041Z,4.23
2017-07-28T10:43:44.036Z,4.13
2017-07-28T10:46:10.292Z,3.97
2017-07-28T10:48:36.544Z,4.30
2017-07-28T10:51:03.549Z,4.17
2017-07-28T10:53:29.822Z,4.40
2017-07-28T10:55:56.074Z,4.80
2017-07-28T10:58:22.329Z,3.70
2017-07-28T11:00:48.601Z,4.10
2017-07-28T11:03:16.575Z,4.03
2017-07-28T11:05:44.066Z,3.77
2017-07-28T11:08:10.329Z,3.30
2017-07-28T11:10:39.022Z,3.90
2017-07-28T11:13:05.320Z,3.10
2017-07-28T11:15:31.569Z,3.80
2017-07-28T11:17:57.850Z,4.07
2017-07-28T11:20:24.124Z,2.93
2017-07-28T11:22:50.380Z,3.57
2017-07-28T11:25:16.636Z,3.90
2017-07-28T11:27:43.918Z,3.50
2017-07-28T11:30:10.216Z,3.30
2017-07-28T11:32:36.481Z,3.63
2017-07-28T11:35:02.769Z,3.93
2017-07-28T11:37:29.034Z,5.23
2017-07-28T11:39:55.321Z,3.40
2017-07-28T11:42:21.628Z,3.80
2017-07-28T11:44:47.912Z,3.63
2017-07-28T11:47:14.191Z,3.43
2017-07-28T11:49:40.452Z,4.20
2017-07-28T11:52:06.705Z,5.10
2017-07-28T11:54:32.988Z,3.90
2017-07-28T11:56:59.980Z,4.03
2017-07-28T11:59:27.249Z,3.50
2017-07-28T12:01:53.548Z,3.37
2017-07-28T12:04:19.805Z,3.47
2017-07-28T12:06:46.116Z,4.27
2017-07-28T12:09:12.402Z,3.03
2017-07-28T12:11:39.428Z,3.93
2017-07-28T12:14:05.724Z,4.43
2017-07-28T12:16:31.993Z,3.23
2017-07-28T12:18:58.277Z,5.20
2017-07-28T12:21:24.550Z,4.90
2017-07-28T12:23:52.585Z,3.53
2017-07-28T12:26:18.846Z,3.40
2017-07-28T12:28:45.113Z,3.50
2017-07-28T12:31:11.392Z,3.50
2017-07-28T12:33:37.669Z,3.10
2017-07-28T12:36:03.917Z,4.30
2017-07-28T12:38:30.173Z,4.10
2017-07-28T12:40:56.437Z,3.80
2017-07-28T12:43:22.775Z,4.17
2017-07-28T12:45:49.032Z,5.80
2017-07-28T12:48:15.293Z,5.30
2017-07-28T12:50:41.537Z,3.87
2017-07-28T12:53:07.793Z,5.87
2017-07-28T12:55:34.090Z,4.17
2017-07-28T12:58:00.349Z,6.43
2017-07-28T13:00:26.609Z,3.70
2017-07-28T13:02:52.890Z,3.13
2017-07-28T13:05:19.150Z,6.73
2017-07-28T13:07:45.433Z,3.80
2017-07-28T13:10:12.442Z,3.53
2017-07-28T13:12:38.698Z,3.17
2017-07-28T13:15:04.975Z,7.80
2017-07-28T13:17:31.224Z,3.07
2017-07-28T13:19:57.500Z,5.13
2017-07-28T13:22:23.789Z,5.50
2017-07-28T13:24:50.044Z,4.00
2017-07-28T13:27:16.353Z,3.60
2017-07-28T13:29:42.625Z,5.77
2017-07-28T13:32:09.673Z,5.10
2017-07-28T13:34:35.946Z,5.47
2017-07-28T13:37:02.208Z,7.60
2017-07-28T13:39:28.469Z,4.73
2017-07-28T13:41:54.725Z,4.40
2017-07-28T13:44:20.985Z,5.30
2017-07-28T13:46:53.361Z,4.20
2017-07-28T13:49:19.613Z,4.93
2017-07-28T13:51:46.605Z,5.17
2017-07-28T13:54:12.866Z,5.77
2017-07-28T13:56:39.120Z,3.80
2017-07-28T13:59:06.125Z,6.87
2017-07-28T14:01:32.405Z,5.90
2017-07-28T14:03:58.705Z,4.27
2017-07-28T14:06:24.972Z,4.57
2017-07-28T14:08:51.281Z,6.27
2017-07-28T14:11:18.289Z,5.80
2017-07-28T14:13:44.537Z,7.73
2017-07-28T14:16:10.833Z,4.27
2017-07-28T14:18:37.092Z,4.50
2017-07-28T14:21:03.336Z,4.50
2017-07-28T14:23:30.359Z,5.73
2017-07-28T14:25:56.620Z,5.50
2017-07-28T14:28:22.901Z,4.40
2017-07-28T14:30:49.165Z,5.63
2017-07-28T14:33:15.449Z,6.20
2017-07-28T14:35:42.013Z,8.93
2017-07-28T14:38:08.290Z,10.00
2017-07-28T14:40:34.609Z,5.60
2017-07-28T14:43:00.890Z,7.97
2017-07-28T14:45:27.169Z,4.80
2017-07-28T14:47:53.425Z,4.63
2017-07-28T14:50:19.696Z,4.27
2017-07-28T14:52:45.981Z,2.97
2017-07-28T14:55:12.267Z,4.47
2017-07-28T14:57:39.257Z,2.50
2017-07-28T15:00:05.521Z,2.60
2017-07-28T15:02:31.781Z,2.30
2017-07-28T15:04:58.055Z,3.03
2017-07-28T15:07:24.305Z,4.40
2017-07-28T15:09:50.556Z,2.83
2017-07-28T15:12:17.553Z,12.40
2017-07-28T15:14:43.802Z,4.00
2017-07-28T15:17:10.072Z,3.60
2017-07-28T15:19:36.336Z,5.13
2017-07-28T15:22:02.593Z,2.80
2017-07-28T15:24:28.849Z,3.13
2017-07-28T15:26:55.829Z,3.07
2017-07-28T15:29:22.421Z,4.33
2017-07-28T15:31:49.418Z,3.70
2017-07-28T15:34:15.666Z,2.40
2017-07-28T15:36:41.937Z,3.37
2017-07-28T15:39:09.217Z,4.90
2017-07-28T15:41:35.491Z,3.00
2017-07-28T15:44:01.760Z,3.90
2017-07-28T15:46:28.021Z,3.57
2017-07-28T15:48:54.294Z,3.47
2017-07-28T15:51:20.536Z,3.30
2017-07-28T15:53:46.800Z,4.07
2017-07-28T15:56:13.057Z,3.57
2017-07-28T15:58:39.309Z,2.93
2017-07-28T16:01:06.308Z,3.20
2017-07-28T16:03:32.553Z,3.70
2017-07-28T16:05:58.825Z,2.37
2017-07-28T16:08:25.105Z,2.80
2017-07-28T16:10:52.218Z,3.90
2017-07-28T16:13:18.476Z,3.27
2017-07-28T16:15:44.728Z,3.20
2017-07-28T16:18:11.033Z,3.10
2017-07-28T16:20:37.382Z,2.00
2017-07-28T16:23:03.640Z,2.53
2017-07-28T16:25:30.633Z,3.53
2017-07-28T16:27:56.877Z,2.80
2017-07-28T16:30:23.160Z,4.20
2017-07-28T16:32:49.406Z,2.77
2017-07-28T16:35:15.660Z,3.60
2017-07-28T16:37:41.905Z,6.03
2017-07-28T16:40:08.157Z,3.10
2017-07-28T16:42:34.445Z,3.07
2017-07-28T16:45:00.697Z,3.87
2017-07-28T16:47:27.725Z,3.77
2017-07-28T16:49:53.984Z,2.97
2017-07-28T16:52:20.243Z,3.47
2017-07-28T16:54:46.508Z,4.47
2017-07-28T16:57:12.797Z,2.70
2017-07-28T16:59:39.060Z,2.60
2017-07-28T17:02:05.342Z,2.63
2017-07-28T17:04:31.606Z,3.87
2017-07-28T17:06:57.881Z,3.00
2017-07-28T17:09:24.885Z,2.73
2017-07-28T17:11:51.162Z,2.63
2017-07-28T17:14:17.441Z,3.97
2017-07-28T17:16:43.696Z,3.20
2017-07-28T17:19:09.997Z,3.30
2017-07-28T17:21:36.252Z,3.17
2017-07-28T17:24:03.261Z,4.53
2017-07-28T17:26:29.513Z,4.30
2017-07-28T17:28:55.761Z,3.57
2017-07-28T17:31:22.772Z,3.93
2017-07-28T17:33:49.044Z,3.27
2017-07-28T17:36:16.076Z,4.20
2017-07-28T17:38:42.361Z,4.87
2017-07-28T17:41:08.629Z,5.27
2017-07-28T17:43:34.904Z,6.73
2017-07-28T17:46:01.160Z,9.20
2017-07-28T17:48:28.414Z,9.37
2017-07-28T17:50:54.669Z,7.60
2017-07-28T17:53:20.913Z,19.03
2017-07-28T17:55:47.928Z,36.80
2017-07-28T17:58:14.196Z,42.47
2017-07-28T18:00:42.202Z,50.30
2017-07-28T18:03:09.473Z,65.43
2017-07-28T18:05:35.729Z,26.77
2017-07-28T18:08:01.997Z,95.60
2017-07-28T18:10:28.252Z,153.07
2017-07-28T18:12:54.504Z,29.03
2017-07-28T18:15:20.767Z,15.23
2017-07-28T18:17:47.021Z,24.23
2017-07-28T18:20:13.316Z,16.50
2017-07-28T18:22:40.333Z,11.13
2017-07-28T18:25:06.581Z,6.37
2017-07-28T18:27:33.575Z,8.37
2017-07-28T18:29:59.832Z,15.00
2017-07-28T18:32:27.120Z,12.90
2017-07-28T18:34:53.389Z,20.03
2017-07-28T18:37:19.653Z,11.47
2017-07-28T18:39:45.913Z,9.80
2017-07-28T18:42:12.169Z,9.70
2017-07-28T18:44:38.464Z,12.10
2017-07-28T18:47:04.741Z,9.40
2017-07-28T18:49:31.017Z,8.63
2017-07-28T18:51:58.049Z,12.33
2017-07-28T18:54:24.305Z,7.80
2017-07-28T18:56:50.590Z,12.73
2017-07-28T18:59:16.866Z,13.07
2017-07-28T19:01:43.130Z,30.73
2017-07-28T19:04:09.416Z,6.60
2017-07-28T19:06:35.678Z,8.00
2017-07-28T19:09:03.033Z,5.83
2017-07-28T19:11:29.295Z,7.70
2017-07-28T19:13:55.577Z,6.03
2017-07-28T19:16:21.841Z,9.67
2017-07-28T19:18:48.105Z,10.40
2017-07-28T19:21:14.378Z,7.93
2017-07-28T19:23:40.635Z,11.33
2017-07-28T19:26:07.960Z,15.97
2017-07-28T19:28:35.249Z,7.10
2017-07-28T19:31:02.263Z,7.80
2017-07-28T19:33:28.579Z,6.63
2017-07-28T19:35:54.853Z,6.33
2017-07-28T19:38:21.116Z,4.83
2017-07-28T19:40:47.372Z,5.93
2017-07-28T19:43:13.621Z,5.47
2017-07-28T19:45:39.897Z,5.50
2017-07-28T19:48:06.321Z,5.80
2017-07-28T19:50:32.605Z,5.93
2017-07-28T19:52:58.875Z,4.63
2017-07-28T19:55:25.124Z,7.90
2017-07-28T19:57:51.406Z,5.30
2017-07-28T20:00:17.666Z,5.70
2017-07-28T20:02:43.929Z,6.30
2017-07-28T20:05:10.182Z,14.23
2017-07-28T20:07:36.449Z,9.93
2017-07-28T20:10:02.753Z,5.97
2017-07-28T20:12:29.040Z,6.80
2017-07-28T20:14:55.330Z,7.20
2017-07-28T20:17:21.586Z,5.73
2017-07-28T20:19:48.445Z,6.47
2017-07-28T20:22:14.713Z,8.70
2017-07-28T20:24:40.993Z,7.63
2017-07-28T20:27:07.253Z,8.80
2017-07-28T20:29:33.528Z,7.93
2017-07-28T20:31:59.800Z,7.77
2017-07-28T20:34:26.077Z,7.33
2017-07-28T20:36:52.335Z,6.50
2017-07-28T20:39:18.617Z,6.27
2017-07-28T20:41:44.872Z,6.43
2017-07-28T20:44:11.156Z,9.43
2017-07-28T20:46:37.455Z,6.27
2017-07-28T20:49:03.712Z,7.60
2017-07-28T20:51:29.961Z,9.00
2017-07-28T20:53:56.214Z,8.20
2017-07-28T20:56:22.521Z,8.93
2017-07-28T20:58:49.515Z,8.43
2017-07-28T21:01:15.773Z,9.27
2017-07-28T21:03:42.029Z,7.57
2017-07-28T21:06:08.277Z,8.57
2017-07-28T21:08:34.569Z,9.47
2017-07-28T21:11:00.833Z,9.03
2017-07-28T21:13:27.130Z,9.93
2017-07-28T21:15:53.394Z,10.03
2017-07-28T21:18:19.653Z,6.90
2017-07-28T21:20:45.922Z,7.60
2017-07-28T21:23:12.175Z,6.83
2017-07-28T21:25:39.487Z,7.17
2017-07-28T21:28:05.758Z,6.70
2017-07-28T21:30:32.138Z,7.00
2017-07-28T21:32:58.413Z,8.23
2017-07-28T21:35:24.663Z,7.73
2017-07-28T21:37:50.919Z,11.53
2017-07-28T21:40:17.341Z,6.60
2017-07-28T21:42:44.370Z,7.53
2017-07-28T21:45:10.677Z,6.90
2017-07-28T21:47:39.052Z,9.07
2017-07-28T21:50:05.305Z,8.80
2017-07-28T21:52:31.572Z,7.83
2017-07-28T21:54:57.820Z,7.80
2017-07-28T21:57:24.864Z,6.50
2017-07-28T21:59:51.120Z,7.17
2017-07-28T22:02:17.377Z,7.27
2017-07-28T22:04:43.636Z,6.40
2017-07-28T22:07:09.889Z,8.63
2017-07-28T22:09:36.905Z,6.83
2017-07-28T22:12:03.173Z,9.87
2017-07-28T22:14:29.420Z,8.47
2017-07-28T22:16:55.669Z,7.43
2017-07-28T22:19:21.925Z,25.60
2017-07-28T22:21:48.187Z,18.80
2017-07-28T22:24:14.433Z,23.00
2017-07-28T22:26:40.682Z,19.17
2017-07-28T22:29:06.943Z,12.33
2017-07-28T22:31:33.218Z,9.83
2017-07-28T22:33:59.504Z,8.10
2017-07-28T22:36:25.756Z,9.17
2017-07-28T22:38:52.014Z,11.63
2017-07-28T22:41:18.264Z,8.50
2017-07-28T22:43:44.513Z,13.73
2017-07-28T22:46:10.793Z,7.40
2017-07-28T22:48:37.081Z,8.43
2017-07-28T22:51:03.337Z,11.53
2017-07-28T22:53:29.593Z,8.80
2017-07-28T22:55:55.844Z,8.03
2017-07-28T22:58:22.125Z,9.13
2017-07-28T23:00:48.380Z,7.53
2017-07-28T23:03:14.660Z,5.90
2017-07-28T23:05:40.932Z,6.03
2017-07-28T23:08:07.184Z,5.70
2017-07-28T23:10:33.457Z,6.80
2017-07-28T23:12:59.729Z,5.63
2017-07-28T23:15:25.993Z,6.17
2017-07-28T23:17:52.244Z,7.20
2017-07-28T23:20:18.509Z,5.70
2017-07-28T23:22:44.784Z,5.90
2017-07-28T23:25:11.789Z,5.40
2017-07-28T23:27:38.045Z,4.00
2017-07-28T23:30:04.308Z,4.90
2017-07-28T23:32:30.562Z,4.73
2017-07-28T23:34:58.184Z,4.83
2017-07-28T23:37:24.450Z,5.90
2017-07-28T23:39:50.701Z,4.87
2017-07-28T23:42:16.989Z,5.70
2017-07-28T23:44:43.245Z,4.93
2017-07-28T23:47:09.527Z,5.73
2017-07-28T23:49:36.528Z,6.40
2017-07-28T23:52:02.803Z,5.20
2017-07-28T23:54:29.065Z,5.17
2017-07-28T23:56:55.469Z,4.10
2017-07-28T23:59:22.489Z,4.57
